SWA989 KBUR-KSMF
Flight info
| Callsign | SWA989 |
|---|---|
| Flight time | 0h 58m |
| Altitude | 34000 |
| Route | OROSZ2 CSTRO NURAY SUUTR4 |
| Aircraft | B737/M-SDE2E3FGHIRWXY/LB1 |
Departure
| Time | 2026-05-06 22:13 |
|---|---|
| Airport | Hollywood Burbank/Bob Hope Airport (KBUR) |
Arrival
| Time | 2026-05-06 23:11 |
|---|---|
| Airport | Sacramento International Airport (KSMF) |
| Time | Latitude | Longitude | Altitude | Speed | Heading |
|---|---|---|---|---|---|
| 2026-05-06 21:52 | 34.19675 | -118.35152 | 688 ft | 0 kts | 181° |
| 2026-05-06 22:05 | 34.19689 | -118.35151 | 689 ft | 4 kts | 193° |
| 2026-05-06 22:05 | 34.19711 | -118.35138 | 687 ft | 4 kts | 237° |
| 2026-05-06 22:05 | 34.19717 | -118.35115 | 685 ft | 1 kts | 271° |
| 2026-05-06 22:06 | 34.19717 | -118.35111 | 685 ft | 1 kts | 271° |
| 2026-05-06 22:08 | 34.19717 | -118.35139 | 687 ft | 9 kts | 271° |
| 2026-05-06 22:08 | 34.19719 | -118.35229 | 693 ft | 12 kts | 271° |
| 2026-05-06 22:09 | 34.19720 | -118.35329 | 695 ft | 12 kts | 271° |
| 2026-05-06 22:09 | 34.19722 | -118.35430 | 694 ft | 13 kts | 271° |
| 2026-05-06 22:09 | 34.19773 | -118.35508 | 694 ft | 16 kts | 347° |
| 2026-05-06 22:09 | 34.19881 | -118.35538 | 695 ft | 16 kts | 347° |
| 2026-05-06 22:10 | 34.19999 | -118.35570 | 698 ft | 22 kts | 347° |
| 2026-05-06 22:10 | 34.20156 | -118.35614 | 703 ft | 23 kts | 347° |
| 2026-05-06 22:10 | 34.20310 | -118.35656 | 716 ft | 22 kts | 347° |
| 2026-05-06 22:10 | 34.20459 | -118.35698 | 724 ft | 22 kts | 347° |
| 2026-05-06 22:11 | 34.20602 | -118.35736 | 729 ft | 21 kts | 347° |
| 2026-05-06 22:11 | 34.20744 | -118.35776 | 738 ft | 20 kts | 347° |
| 2026-05-06 22:11 | 34.20881 | -118.35813 | 748 ft | 20 kts | 348° |
| 2026-05-06 22:11 | 34.21011 | -118.35847 | 756 ft | 19 kts | 347° |
| 2026-05-06 22:12 | 34.21137 | -118.35891 | 767 ft | 18 kts | 330° |
| 2026-05-06 22:12 | 34.21210 | -118.36005 | 773 ft | 14 kts | 268° |
| 2026-05-06 22:12 | 34.21116 | -118.36015 | 770 ft | 30 kts | 167° |
| 2026-05-06 22:12 | 34.20575 | -118.35865 | 730 ft | 128 kts | 167° |
| 2026-05-06 22:13 | 34.19489 | -118.35568 | 1021 ft | 176 kts | 167° |
| 2026-05-06 22:13 | 34.18248 | -118.35339 | 2038 ft | 187 kts | 186° |
| 2026-05-06 22:13 | 34.17049 | -118.35965 | 3078 ft | 199 kts | 217° |
| 2026-05-06 22:13 | 34.15947 | -118.37107 | 3778 ft | 222 kts | 222° |
| 2026-05-06 22:14 | 34.14726 | -118.38471 | 4003 ft | 254 kts | 226° |
| 2026-05-06 22:14 | 34.13869 | -118.40325 | 4097 ft | 257 kts | 260° |
| 2026-05-06 22:14 | 34.14122 | -118.42453 | 4759 ft | 264 kts | 299° |
| 2026-05-06 22:14 | 34.15200 | -118.44209 | 6156 ft | 263 kts | 315° |
| 2026-05-06 22:15 | 34.16647 | -118.45557 | 7410 ft | 265 kts | 326° |
| 2026-05-06 22:15 | 34.18208 | -118.46798 | 8510 ft | 272 kts | 327° |
| 2026-05-06 22:15 | 34.19811 | -118.48052 | 9614 ft | 277 kts | 327° |
| 2026-05-06 22:15 | 34.21437 | -118.49351 | 10588 ft | 289 kts | 326° |
| 2026-05-06 22:16 | 34.23193 | -118.50785 | 10934 ft | 322 kts | 326° |
| 2026-05-06 22:16 | 34.25114 | -118.52385 | 11443 ft | 344 kts | 325° |
| 2026-05-06 22:16 | 34.27096 | -118.54058 | 12374 ft | 351 kts | 325° |
| 2026-05-06 22:16 | 34.29107 | -118.55770 | 13398 ft | 355 kts | 324° |
| 2026-05-06 22:17 | 34.31139 | -118.57508 | 14350 ft | 361 kts | 324° |
| 2026-05-06 22:17 | 34.33207 | -118.59282 | 15242 ft | 368 kts | 324° |
| 2026-05-06 22:17 | 34.35312 | -118.61088 | 16164 ft | 373 kts | 324° |
| 2026-05-06 22:17 | 34.37435 | -118.62912 | 17104 ft | 376 kts | 324° |
| 2026-05-06 22:18 | 34.39580 | -118.64755 | 17996 ft | 380 kts | 324° |
| 2026-05-06 22:18 | 34.41820 | -118.66473 | 18846 ft | 384 kts | 333° |
| 2026-05-06 22:18 | 34.44309 | -118.67697 | 19640 ft | 389 kts | 343° |
| 2026-05-06 22:18 | 34.46970 | -118.68398 | 20399 ft | 394 kts | 350° |
| 2026-05-06 22:19 | 34.49701 | -118.68912 | 21131 ft | 400 kts | 352° |
| 2026-05-06 22:19 | 34.52470 | -118.69401 | 21855 ft | 404 kts | 352° |
| 2026-05-06 22:19 | 34.55270 | -118.69905 | 22522 ft | 410 kts | 351° |
| 2026-05-06 22:19 | 34.58106 | -118.70435 | 23189 ft | 414 kts | 351° |
| 2026-05-06 22:20 | 34.60966 | -118.70985 | 23829 ft | 419 kts | 351° |
| 2026-05-06 22:20 | 34.63852 | -118.71549 | 24471 ft | 422 kts | 351° |
| 2026-05-06 22:20 | 34.66729 | -118.72114 | 25052 ft | 427 kts | 351° |
| 2026-05-06 22:20 | 34.69673 | -118.72706 | 25608 ft | 431 kts | 349° |
| 2026-05-06 22:21 | 34.72608 | -118.73709 | 26157 ft | 435 kts | 339° |
| 2026-05-06 22:21 | 34.75320 | -118.75262 | 26673 ft | 439 kts | 331° |
| 2026-05-06 22:21 | 34.77988 | -118.77087 | 27200 ft | 442 kts | 330° |
| 2026-05-06 22:21 | 34.80658 | -118.78966 | 27688 ft | 446 kts | 330° |
| 2026-05-06 22:22 | 34.83355 | -118.80871 | 28129 ft | 450 kts | 330° |
| 2026-05-06 22:22 | 34.86072 | -118.82778 | 28592 ft | 452 kts | 330° |
| 2026-05-06 22:22 | 34.88813 | -118.84687 | 29046 ft | 455 kts | 330° |
| 2026-05-06 22:22 | 34.91558 | -118.86587 | 29680 ft | 452 kts | 330° |
| 2026-05-06 22:23 | 34.94278 | -118.88463 | 30440 ft | 446 kts | 330° |
| 2026-05-06 22:23 | 34.96963 | -118.90312 | 31131 ft | 442 kts | 330° |
| 2026-05-06 22:23 | 34.99636 | -118.92153 | 31618 ft | 442 kts | 330° |
| 2026-05-06 22:23 | 35.02316 | -118.94001 | 32051 ft | 443 kts | 330° |
| 2026-05-06 22:24 | 35.04993 | -118.95848 | 32545 ft | 441 kts | 330° |
| 2026-05-06 22:24 | 35.07658 | -118.97689 | 33075 ft | 439 kts | 330° |
| 2026-05-06 22:24 | 35.10304 | -118.99518 | 33568 ft | 437 kts | 330° |
| 2026-05-06 22:24 | 35.12949 | -119.01348 | 33966 ft | 438 kts | 330° |
| 2026-05-06 22:25 | 35.18243 | -119.05015 | 33999 ft | 436 kts | 330° |
| 2026-05-06 22:25 | 35.23525 | -119.08680 | 34010 ft | 437 kts | 330° |
| 2026-05-06 22:26 | 35.28814 | -119.12355 | 34009 ft | 437 kts | 330° |
| 2026-05-06 22:26 | 35.34108 | -119.16040 | 34005 ft | 438 kts | 330° |
| 2026-05-06 22:27 | 35.39408 | -119.19734 | 34002 ft | 438 kts | 330° |
| 2026-05-06 22:27 | 35.44728 | -119.23385 | 33998 ft | 438 kts | 334° |
| 2026-05-06 22:28 | 35.50439 | -119.25915 | 34000 ft | 437 kts | 342° |
| 2026-05-06 22:28 | 35.56195 | -119.28139 | 34003 ft | 437 kts | 342° |
| 2026-05-06 22:29 | 35.61988 | -119.30407 | 34001 ft | 437 kts | 342° |
| 2026-05-06 22:29 | 35.67775 | -119.32718 | 34002 ft | 437 kts | 342° |
| 2026-05-06 22:30 | 35.73554 | -119.35046 | 34001 ft | 437 kts | 342° |
| 2026-05-06 22:30 | 35.79337 | -119.37382 | 34001 ft | 437 kts | 342° |
| 2026-05-06 22:31 | 35.85117 | -119.39720 | 34001 ft | 437 kts | 342° |
| 2026-05-06 22:31 | 35.90893 | -119.42058 | 34001 ft | 437 kts | 342° |
| 2026-05-06 22:32 | 35.96668 | -119.44400 | 34001 ft | 437 kts | 342° |
| 2026-05-06 22:32 | 36.02446 | -119.46746 | 33999 ft | 437 kts | 342° |
| 2026-05-06 22:33 | 36.08219 | -119.49094 | 34001 ft | 437 kts | 342° |
| 2026-05-06 22:33 | 36.13990 | -119.51445 | 34001 ft | 436 kts | 342° |
| 2026-05-06 22:34 | 36.19757 | -119.53798 | 34001 ft | 436 kts | 342° |
| 2026-05-06 22:34 | 36.25518 | -119.56152 | 34001 ft | 436 kts | 342° |
| 2026-05-06 22:35 | 36.31281 | -119.58511 | 34001 ft | 436 kts | 341° |
| 2026-05-06 22:35 | 36.37042 | -119.60872 | 34002 ft | 436 kts | 341° |
| 2026-05-06 22:36 | 36.42802 | -119.63237 | 34001 ft | 436 kts | 341° |
| 2026-05-06 22:36 | 36.48527 | -119.65591 | 34002 ft | 436 kts | 341° |
| 2026-05-06 22:37 | 36.54325 | -119.67979 | 34002 ft | 436 kts | 341° |
| 2026-05-06 22:37 | 36.60062 | -119.70436 | 33992 ft | 436 kts | 335° |
| 2026-05-06 22:38 | 36.65266 | -119.74307 | 34003 ft | 436 kts | 327° |
| 2026-05-06 22:38 | 36.70322 | -119.78484 | 34001 ft | 436 kts | 326° |
| 2026-05-06 22:39 | 36.75411 | -119.82614 | 34002 ft | 436 kts | 327° |
| 2026-05-06 22:39 | 36.80531 | -119.86692 | 33999 ft | 437 kts | 327° |
| 2026-05-06 22:40 | 36.85627 | -119.90729 | 34002 ft | 437 kts | 327° |
| 2026-05-06 22:40 | 36.90756 | -119.94797 | 34002 ft | 437 kts | 327° |
| 2026-05-06 22:41 | 36.98447 | -120.00915 | 34001 ft | 437 kts | 327° |
| 2026-05-06 22:42 | 37.03577 | -120.05005 | 34002 ft | 437 kts | 327° |
| 2026-05-06 22:42 | 37.06147 | -120.07056 | 33553 ft | 441 kts | 327° |
| 2026-05-06 22:42 | 37.07854 | -120.08420 | 33152 ft | 438 kts | 327° |
| 2026-05-06 22:42 | 37.10414 | -120.10466 | 32438 ft | 436 kts | 327° |
| 2026-05-06 22:43 | 37.12967 | -120.12508 | 31759 ft | 433 kts | 327° |
| 2026-05-06 22:43 | 37.15483 | -120.14523 | 31230 ft | 426 kts | 327° |
| 2026-05-06 22:43 | 37.17972 | -120.16517 | 30638 ft | 422 kts | 327° |
| 2026-05-06 22:43 | 37.20426 | -120.18485 | 30132 ft | 416 kts | 327° |
| 2026-05-06 22:44 | 37.22846 | -120.20427 | 29607 ft | 410 kts | 327° |
| 2026-05-06 22:44 | 37.25233 | -120.22344 | 29075 ft | 405 kts | 327° |
| 2026-05-06 22:44 | 37.27592 | -120.24239 | 28539 ft | 400 kts | 327° |
| 2026-05-06 22:44 | 37.29926 | -120.26092 | 28008 ft | 395 kts | 328° |
| 2026-05-06 22:45 | 37.32245 | -120.27897 | 27468 ft | 390 kts | 328° |
| 2026-05-06 22:45 | 37.34549 | -120.29681 | 26957 ft | 387 kts | 328° |
| 2026-05-06 22:45 | 37.36840 | -120.31457 | 26434 ft | 387 kts | 328° |
| 2026-05-06 22:45 | 37.39128 | -120.33237 | 25912 ft | 388 kts | 328° |
| 2026-05-06 22:46 | 37.41440 | -120.35040 | 25366 ft | 394 kts | 328° |
| 2026-05-06 22:46 | 37.43774 | -120.36863 | 24829 ft | 395 kts | 328° |
| 2026-05-06 22:46 | 37.46091 | -120.38674 | 24348 ft | 388 kts | 328° |
| 2026-05-06 22:46 | 37.48303 | -120.40511 | 23929 ft | 378 kts | 323° |
| 2026-05-06 22:47 | 37.50354 | -120.42551 | 23428 ft | 373 kts | 320° |
| 2026-05-06 22:47 | 37.52336 | -120.44631 | 22917 ft | 368 kts | 320° |
| 2026-05-06 22:47 | 37.54320 | -120.46702 | 22410 ft | 364 kts | 321° |
| 2026-05-06 22:47 | 37.56249 | -120.48673 | 21910 ft | 360 kts | 321° |
| 2026-05-06 22:48 | 37.58195 | -120.50634 | 21408 ft | 356 kts | 321° |
| 2026-05-06 22:48 | 37.60118 | -120.52566 | 20937 ft | 351 kts | 321° |
| 2026-05-06 22:48 | 37.62024 | -120.54475 | 20595 ft | 349 kts | 321° |
| 2026-05-06 22:48 | 37.63948 | -120.56399 | 20249 ft | 357 kts | 321° |
| 2026-05-06 22:49 | 37.65912 | -120.58366 | 19886 ft | 363 kts | 321° |
| 2026-05-06 22:49 | 37.67895 | -120.60355 | 19514 ft | 364 kts | 321° |
| 2026-05-06 22:49 | 37.69873 | -120.62340 | 19137 ft | 362 kts | 321° |
| 2026-05-06 22:49 | 37.71838 | -120.64313 | 18766 ft | 360 kts | 321° |
| 2026-05-06 22:50 | 37.73788 | -120.66273 | 18404 ft | 357 kts | 321° |
| 2026-05-06 22:50 | 37.75725 | -120.68222 | 18043 ft | 354 kts | 321° |
| 2026-05-06 22:50 | 37.77647 | -120.70156 | 17686 ft | 352 kts | 321° |
| 2026-05-06 22:50 | 37.79553 | -120.72076 | 17333 ft | 349 kts | 321° |
| 2026-05-06 22:51 | 37.81448 | -120.73986 | 16966 ft | 348 kts | 321° |
| 2026-05-06 22:51 | 37.83334 | -120.75888 | 16574 ft | 347 kts | 321° |
| 2026-05-06 22:51 | 37.85222 | -120.77793 | 16165 ft | 346 kts | 321° |
| 2026-05-06 22:51 | 37.87093 | -120.79686 | 15807 ft | 342 kts | 321° |
| 2026-05-06 22:52 | 37.88944 | -120.81564 | 15453 ft | 339 kts | 321° |
| 2026-05-06 22:52 | 37.90776 | -120.83427 | 15109 ft | 337 kts | 321° |
| 2026-05-06 22:52 | 37.92599 | -120.85280 | 14768 ft | 335 kts | 321° |
| 2026-05-06 22:52 | 37.94411 | -120.87125 | 14431 ft | 333 kts | 321° |
| 2026-05-06 22:53 | 37.96212 | -120.88958 | 14095 ft | 331 kts | 321° |
| 2026-05-06 22:53 | 37.98002 | -120.90783 | 13761 ft | 330 kts | 321° |
| 2026-05-06 22:53 | 37.99786 | -120.92602 | 13426 ft | 328 kts | 321° |
| 2026-05-06 22:53 | 38.01560 | -120.94411 | 13099 ft | 327 kts | 321° |
| 2026-05-06 22:54 | 38.03329 | -120.96216 | 12763 ft | 326 kts | 321° |
| 2026-05-06 22:54 | 38.05090 | -120.98016 | 12442 ft | 325 kts | 321° |
| 2026-05-06 22:54 | 38.06844 | -120.99807 | 12114 ft | 323 kts | 321° |
| 2026-05-06 22:54 | 38.08505 | -121.01728 | 11786 ft | 322 kts | 313° |
| 2026-05-06 22:55 | 38.09966 | -121.03875 | 11464 ft | 321 kts | 309° |
| 2026-05-06 22:55 | 38.11383 | -121.06068 | 11140 ft | 320 kts | 309° |
| 2026-05-06 22:55 | 38.12798 | -121.08246 | 10816 ft | 319 kts | 310° |
| 2026-05-06 22:55 | 38.14209 | -121.10375 | 10487 ft | 310 kts | 310° |
| 2026-05-06 22:56 | 38.15588 | -121.12426 | 10174 ft | 301 kts | 310° |
| 2026-05-06 22:56 | 38.16930 | -121.14411 | 9868 ft | 292 kts | 310° |
| 2026-05-06 22:56 | 38.18223 | -121.16322 | 9816 ft | 276 kts | 310° |
| 2026-05-06 22:56 | 38.19464 | -121.18151 | 9395 ft | 275 kts | 311° |
| 2026-05-06 22:57 | 38.20702 | -121.19972 | 9072 ft | 270 kts | 311° |
| 2026-05-06 22:57 | 38.21926 | -121.21752 | 8856 ft | 262 kts | 313° |
| 2026-05-06 22:57 | 38.23189 | -121.23398 | 8754 ft | 259 kts | 315° |
| 2026-05-06 22:57 | 38.24475 | -121.25010 | 8649 ft | 261 kts | 315° |
| 2026-05-06 22:58 | 38.25760 | -121.26613 | 8540 ft | 264 kts | 315° |
| 2026-05-06 22:58 | 38.27074 | -121.28257 | 8449 ft | 266 kts | 315° |
| 2026-05-06 22:58 | 38.28389 | -121.29909 | 8341 ft | 265 kts | 315° |
| 2026-05-06 22:58 | 38.29638 | -121.31483 | 8240 ft | 265 kts | 315° |
| 2026-05-06 22:59 | 38.30946 | -121.33134 | 8138 ft | 264 kts | 315° |
| 2026-05-06 22:59 | 38.32250 | -121.34784 | 8034 ft | 264 kts | 315° |
| 2026-05-06 22:59 | 38.33548 | -121.36430 | 7935 ft | 264 kts | 315° |
| 2026-05-06 22:59 | 38.34849 | -121.38080 | 7833 ft | 263 kts | 315° |
| 2026-05-06 23:00 | 38.36144 | -121.39723 | 7735 ft | 263 kts | 315° |
| 2026-05-06 23:00 | 38.37434 | -121.41363 | 7638 ft | 261 kts | 315° |
| 2026-05-06 23:00 | 38.38714 | -121.42991 | 7534 ft | 259 kts | 315° |
| 2026-05-06 23:00 | 38.39992 | -121.44616 | 7439 ft | 259 kts | 315° |
| 2026-05-06 23:01 | 38.41266 | -121.46239 | 7340 ft | 260 kts | 315° |
| 2026-05-06 23:01 | 38.42546 | -121.47868 | 7241 ft | 260 kts | 315° |
| 2026-05-06 23:01 | 38.43828 | -121.49501 | 7137 ft | 260 kts | 315° |
| 2026-05-06 23:01 | 38.45108 | -121.51133 | 7043 ft | 261 kts | 315° |
| 2026-05-06 23:02 | 38.46393 | -121.52771 | 6943 ft | 261 kts | 315° |
| 2026-05-06 23:02 | 38.47685 | -121.54398 | 6808 ft | 262 kts | 318° |
| 2026-05-06 23:02 | 38.49098 | -121.55883 | 6608 ft | 262 kts | 322° |
| 2026-05-06 23:02 | 38.50530 | -121.57289 | 6405 ft | 258 kts | 322° |
| 2026-05-06 23:03 | 38.51939 | -121.58673 | 6207 ft | 254 kts | 322° |
| 2026-05-06 23:03 | 38.53334 | -121.60058 | 6023 ft | 255 kts | 322° |
| 2026-05-06 23:03 | 38.54731 | -121.61457 | 5831 ft | 255 kts | 322° |
| 2026-05-06 23:03 | 38.56123 | -121.62856 | 5636 ft | 255 kts | 322° |
| 2026-05-06 23:04 | 38.57515 | -121.64256 | 5438 ft | 255 kts | 322° |
| 2026-05-06 23:04 | 38.59037 | -121.65384 | 5229 ft | 254 kts | 341° |
| 2026-05-06 23:04 | 38.60728 | -121.66016 | 5050 ft | 253 kts | 344° |
| 2026-05-06 23:04 | 38.62420 | -121.66624 | 4860 ft | 252 kts | 344° |
| 2026-05-06 23:05 | 38.64104 | -121.67244 | 4660 ft | 251 kts | 343° |
| 2026-05-06 23:05 | 38.65778 | -121.67875 | 4467 ft | 250 kts | 343° |
| 2026-05-06 23:05 | 38.67418 | -121.68503 | 4266 ft | 243 kts | 343° |
| 2026-05-06 23:05 | 38.69013 | -121.69116 | 4081 ft | 235 kts | 343° |
| 2026-05-06 23:06 | 38.70505 | -121.69688 | 3903 ft | 229 kts | 343° |
| 2026-05-06 23:06 | 38.72047 | -121.70011 | 3655 ft | 221 kts | 1° |
| 2026-05-06 23:06 | 38.73547 | -121.69941 | 3457 ft | 210 kts | 2° |
| 2026-05-06 23:06 | 38.74962 | -121.69889 | 3219 ft | 198 kts | 1° |
| 2026-05-06 23:07 | 38.76299 | -121.69839 | 3008 ft | 189 kts | 4° |
| 2026-05-06 23:07 | 38.77557 | -121.69512 | 2787 ft | 181 kts | 21° |
| 2026-05-06 23:07 | 38.78619 | -121.68732 | 2573 ft | 174 kts | 40° |
| 2026-05-06 23:07 | 38.79388 | -121.67588 | 2366 ft | 167 kts | 59° |
| 2026-05-06 23:08 | 38.79825 | -121.66228 | 2171 ft | 164 kts | 77° |
| 2026-05-06 23:08 | 38.79948 | -121.64773 | 1987 ft | 165 kts | 92° |
| 2026-05-06 23:08 | 38.79749 | -121.63309 | 1669 ft | 169 kts | 109° |
| 2026-05-06 23:08 | 38.79228 | -121.62030 | 1533 ft | 160 kts | 127° |
| 2026-05-06 23:09 | 38.78442 | -121.61003 | 1383 ft | 163 kts | 143° |
| 2026-05-06 23:09 | 38.77469 | -121.60311 | 1177 ft | 155 kts | 160° |
| 2026-05-06 23:09 | 38.76484 | -121.60032 | 1030 ft | 138 kts | 174° |
| 2026-05-06 23:09 | 38.75527 | -121.60017 | 805 ft | 139 kts | 182° |
| 2026-05-06 23:10 | 38.74569 | -121.60042 | 616 ft | 137 kts | 179° |
| 2026-05-06 23:10 | 38.73632 | -121.60060 | 440 ft | 133 kts | 181° |
| 2026-05-06 23:10 | 38.72716 | -121.60075 | 298 ft | 130 kts | 180° |
| 2026-05-06 23:10 | 38.71822 | -121.60090 | 176 ft | 130 kts | 180° |
| 2026-05-06 23:11 | 38.70895 | -121.60105 | 71 ft | 133 kts | 180° |
| 2026-05-06 23:11 | 38.69999 | -121.60120 | 24 ft | 112 kts | 181° |
| 2026-05-06 23:11 | 38.69426 | -121.60131 | 21 ft | 67 kts | 181° |
| 2026-05-06 23:11 | 38.69112 | -121.60130 | 24 ft | 28 kts | 166° |
| 2026-05-06 23:12 | 38.69060 | -121.59972 | 22 ft | 15 kts | 89° |
| 2026-05-06 23:12 | 38.69085 | -121.59876 | 23 ft | 12 kts | 25° |
| 2026-05-06 23:12 | 38.69202 | -121.59872 | 22 ft | 20 kts | 1° |
| 2026-05-06 23:12 | 38.69359 | -121.59869 | 23 ft | 25 kts | 0° |
| 2026-05-06 23:13 | 38.69540 | -121.59866 | 22 ft | 27 kts | 0° |
| 2026-05-06 23:13 | 38.69694 | -121.59840 | 25 ft | 19 kts | 56° |
| 2026-05-06 23:13 | 38.69700 | -121.59673 | 22 ft | 19 kts | 91° |
| 2026-05-06 23:13 | 38.69698 | -121.59509 | 22 ft | 18 kts | 91° |
| 2026-05-06 23:14 | 38.69697 | -121.59354 | 22 ft | 17 kts | 90° |
| 2026-05-06 23:14 | 38.69673 | -121.59282 | 22 ft | 8 kts | 197° |
| 2026-05-06 23:14 | 38.69633 | -121.59301 | 22 ft | 3 kts | 198° |
| 2026-05-06 23:14 | 38.69628 | -121.59303 | 22 ft | 0 kts | 198° |